Callawassie Island, South Carolina
Current Conditions -  °F | °C
As of 6:50 AM on Friday 24 Oct 2014 (Local Time) from KHXD Reporting Station
Clear Clear  
Wind Chill: 50°   Ceiling: Unl
Heat Index: 50°   Visibility: 10mi
Dew Point: 48°   Wind: 3mph
Humidity: 94%   Direction: 280°W
Pressure: 30.05"   Gusts: NA
Location:  32.3283°N, 80.8483°W
Report Text: KHXD 241050Z 28003KT 10SM SKC 10/09 A3005
Loading
Personal Weather Stations






























Interactive Weather Map
Tropical Storm Tracking
New forecast layout! Learn more

10-Day Weather Forecast

Advertisements
Track Severe Weather on mobile